TOM98K EGNX-LEIB
Flight info
| Callsign | TOM98K |
|---|---|
| Flight time | N/A |
| Altitude | 23000 |
| Route | SAPCO Y53 DTY M605 SILVA/N0456F380 Q41 COWLY/N0455F370 DCT GWC UN859 SOPIL DCT BALAN/N0450F390 DCT EVPOK DCT NARAK DCT GAI DCT LOMRA DCT ROCAN DCT PUMAL DCT XEPLA DCT BCN Z174 CORDA |
| Aircraft | B38M/M-SDE1FGHILORVWXY/HB1 |
Departure
| Time | 2026-05-08 09:14 |
|---|---|
| Airport | East Midlands Airport (EGNX) |
Arrival
| Time | N/A |
|---|---|
| Airport | Ibiza Airport (LEIB) |
| Time | Latitude | Longitude | Altitude | Speed | Heading |
|---|---|---|---|---|---|
| 2026-05-08 08:48 | 52.82708 | -1.33349 | 303 ft | 0 kts | 178° |
| 2026-05-08 09:05 | 52.82725 | -1.33350 | 304 ft | 4 kts | 178° |
| 2026-05-08 09:05 | 52.82749 | -1.33351 | 303 ft | 3 kts | 179° |
| 2026-05-08 09:05 | 52.82764 | -1.33348 | 303 ft | 4 kts | 211° |
| 2026-05-08 09:06 | 52.82774 | -1.33318 | 303 ft | 4 kts | 266° |
| 2026-05-08 09:06 | 52.82775 | -1.33275 | 303 ft | 4 kts | 268° |
| 2026-05-08 09:06 | 52.82775 | -1.33235 | 303 ft | 1 kts | 268° |
| 2026-05-08 09:06 | 52.82782 | -1.33187 | 303 ft | 2 kts | 245° |
| 2026-05-08 09:07 | 52.82787 | -1.33166 | 303 ft | 4 kts | 254° |
| 2026-05-08 09:07 | 52.82791 | -1.33122 | 303 ft | 4 kts | 269° |
| 2026-05-08 09:07 | 52.82791 | -1.33094 | 303 ft | 1 kts | 268° |
| 2026-05-08 09:10 | 52.82791 | -1.33095 | 303 ft | 0 kts | 268° |
| 2026-05-08 09:10 | 52.82807 | -1.33153 | 306 ft | 9 kts | 326° |
| 2026-05-08 09:10 | 52.82878 | -1.33166 | 303 ft | 11 kts | 355° |
| 2026-05-08 09:11 | 52.82921 | -1.33254 | 307 ft | 10 kts | 277° |
| 2026-05-08 09:11 | 52.82920 | -1.33439 | 310 ft | 22 kts | 266° |
| 2026-05-08 09:11 | 52.82914 | -1.33716 | 308 ft | 25 kts | 268° |
| 2026-05-08 09:11 | 52.82910 | -1.34009 | 305 ft | 27 kts | 268° |
| 2026-05-08 09:12 | 52.82908 | -1.34327 | 307 ft | 27 kts | 271° |
| 2026-05-08 09:12 | 52.82916 | -1.34619 | 306 ft | 21 kts | 301° |
| 2026-05-08 09:12 | 52.82958 | -1.34662 | 305 ft | 2 kts | 348° |
| 2026-05-08 09:13 | 52.82960 | -1.34662 | 305 ft | 2 kts | 349° |
| 2026-05-08 09:13 | 52.83047 | -1.34669 | 305 ft | 14 kts | 6° |
| 2026-05-08 09:13 | 52.83069 | -1.34552 | 304 ft | 13 kts | 89° |
| 2026-05-08 09:13 | 52.83075 | -1.34242 | 305 ft | 60 kts | 88° |
| 2026-05-08 09:14 | 52.83095 | -1.33101 | 311 ft | 136 kts | 88° |
| 2026-05-08 09:14 | 52.83127 | -1.31207 | 510 ft | 180 kts | 92° |
| 2026-05-08 09:14 | 52.83098 | -1.29159 | 1568 ft | 175 kts | 92° |
| 2026-05-08 09:14 | 52.82996 | -1.27115 | 2323 ft | 194 kts | 99° |
| 2026-05-08 09:15 | 52.82773 | -1.24744 | 2775 ft | 222 kts | 110° |
| 2026-05-08 09:15 | 52.81952 | -1.22491 | 3575 ft | 229 kts | 133° |
| 2026-05-08 09:15 | 52.80908 | -1.20510 | 4644 ft | 235 kts | 133° |
| 2026-05-08 09:15 | 52.79773 | -1.18407 | 5374 ft | 253 kts | 134° |
| 2026-05-08 09:16 | 52.78506 | -1.16296 | 6253 ft | 260 kts | 146° |
| 2026-05-08 09:16 | 52.76820 | -1.15334 | 7258 ft | 260 kts | 179° |
| 2026-05-08 09:16 | 52.75037 | -1.15803 | 8290 ft | 258 kts | 198° |
| 2026-05-08 09:16 | 52.73434 | -1.16956 | 9584 ft | 246 kts | 211° |
| 2026-05-08 09:17 | 52.72068 | -1.18557 | 10703 ft | 237 kts | 222° |
| 2026-05-08 09:17 | 52.70928 | -1.20516 | 11477 ft | 239 kts | 232° |
| 2026-05-08 09:17 | 52.69963 | -1.22821 | 12018 ft | 254 kts | 237° |
| 2026-05-08 09:17 | 52.68768 | -1.25042 | 11529 ft | 270 kts | 214° |